Houston, Texas
Traffic Map
Current Weather Conditions
Houston, Texas
Clear
Clear
27°
Feels Like: 31°
Wind Chill: 27° Ceiling: Unl
Heat Index: 31° Visibility: 10mi
Dew Point: 24° Wind: 5mph
Humidity: 85% Direction: 190° (S)
Pressure: 30in Gusts: 0mph
Raw Report DataKIAH 181053Z 19004KT 10SM CLR 27/24 A3000 RMK AO2 SLP157 T02720244
Traffic Incident Summary
Active as of:
Severity:
Category:
InformationThere was an issue retrieving the traffic information for this location. Please try a different location or try again shortly.
Advertisements